createdAt,value
2023-01-29T00:01:38.293Z,91144.75
2023-01-29T00:04:05.299Z,91153.72
2023-01-29T00:06:32.400Z,91152.03
2023-01-29T00:08:59.226Z,91117.44
2023-01-29T00:11:26.049Z,91145.97
2023-01-29T00:13:53.334Z,91146.09
2023-01-29T00:16:21.300Z,91147.00
2023-01-29T00:18:47.957Z,91145.19
2023-01-29T00:21:19.793Z,91144.41
2023-01-29T00:23:46.690Z,91145.50
2023-01-29T00:26:13.995Z,91144.72
2023-01-29T00:28:41.199Z,91148.53
2023-01-29T00:31:21.408Z,91152.47
2023-01-29T00:33:49.516Z,91155.06
2023-01-29T00:36:18.306Z,91158.72
2023-01-29T00:38:45.071Z,91152.19
2023-01-29T00:41:34.854Z,91159.59
2023-01-29T00:44:20.853Z,91152.94
2023-01-29T00:46:47.525Z,91154.75
2023-01-29T00:49:14.186Z,91148.41
2023-01-29T00:51:41.191Z,91163.72
2023-01-29T00:54:07.885Z,91162.66
2023-01-29T00:56:36.786Z,91157.94
2023-01-29T00:59:04.938Z,91156.72
2023-01-29T01:01:50.209Z,91160.22
2023-01-29T01:04:16.922Z,91154.75
2023-01-29T01:06:43.870Z,91156.41
2023-01-29T01:09:30.058Z,91161.72
2023-01-29T01:11:56.742Z,91164.31
2023-01-29T01:14:23.391Z,91165.84
2023-01-29T01:16:50.238Z,91163.72
2023-01-29T01:19:17.357Z,91166.31
2023-01-29T01:21:47.157Z,91161.13
2023-01-29T01:24:14.488Z,91153.09
2023-01-29T01:26:41.209Z,91160.84
2023-01-29T01:29:07.917Z,91170.25
2023-01-29T01:31:34.656Z,91164.91
2023-01-29T01:34:01.447Z,91162.66
2023-01-29T01:36:28.139Z,91155.97
2023-01-29T01:38:55.060Z,91165.38
2023-01-29T01:41:24.096Z,91164.03
2023-01-29T01:43:55.869Z,91160.97
2023-01-29T01:46:23.433Z,91161.13
2023-01-29T01:48:57.058Z,91165.06
2023-01-29T01:51:26.388Z,91166.59
2023-01-29T01:54:03.775Z,91169.66
2023-01-29T01:56:40.922Z,91159.75
2023-01-29T01:59:11.815Z,91172.06
2023-01-29T02:01:42.954Z,91165.06
2023-01-29T02:04:32.671Z,91162.50
2023-01-29T02:07:20.845Z,91166.31
2023-01-29T02:10:15.570Z,91123.19
2023-01-29T02:12:44.228Z,91156.72
2023-01-29T02:15:21.052Z,91158.56
2023-01-29T02:17:48.446Z,91149.91
2023-01-29T02:20:26.503Z,91158.41
2023-01-29T02:23:16.425Z,91155.38
2023-01-29T02:25:43.007Z,91156.75
2023-01-29T02:28:18.773Z,91161.88
2023-01-29T02:30:59.641Z,91166.75
2023-01-29T02:33:26.333Z,91165.22
2023-01-29T02:36:31.638Z,91167.34
2023-01-29T02:39:31.341Z,91169.56
2023-01-29T02:42:16.795Z,91175.53
2023-01-29T02:45:01.178Z,91180.44
2023-01-29T02:47:40.133Z,91184.03
2023-01-29T02:50:46.430Z,91189.59
2023-01-29T02:53:19.369Z,91188.84
2023-01-29T02:55:54.970Z,91184.59
2023-01-29T02:58:33.252Z,91198.78
2023-01-29T03:01:23.664Z,91190.91
2023-01-29T03:03:55.757Z,91193.66
2023-01-29T03:06:32.744Z,91195.53
2023-01-29T03:09:04.415Z,91193.78
2023-01-29T03:11:45.337Z,91195.81
2023-01-29T03:14:17.134Z,91200.78
2023-01-29T03:16:51.157Z,91197.63
2023-01-29T03:19:31.918Z,91202.94
2023-01-29T03:22:00.815Z,91202.66
2023-01-29T03:25:02.406Z,91206.94
2023-01-29T03:27:55.322Z,91202.81
2023-01-29T03:30:44.286Z,91198.44
2023-01-29T03:33:14.022Z,91206.50
2023-01-29T03:35:50.142Z,91205.00
2023-01-29T03:38:18.451Z,91211.53
2023-01-29T03:40:58.350Z,91195.25
2023-01-29T03:43:40.459Z,91199.38
2023-01-29T03:46:29.880Z,91207.75
2023-01-29T03:49:30.314Z,91211.09
2023-01-29T03:52:09.748Z,91208.94
2023-01-29T03:55:06.756Z,91206.81
2023-01-29T03:58:00.979Z,91211.81
2023-01-29T04:00:36.175Z,91201.66
2023-01-29T04:03:21.794Z,91204.84
2023-01-29T04:06:12.528Z,91208.31
2023-01-29T04:08:58.902Z,91203.94
2023-01-29T04:11:29.096Z,91210.31
2023-01-29T04:13:57.480Z,91209.09
2023-01-29T04:16:29.091Z,91218.84
2023-01-29T04:18:56.832Z,91215.19
2023-01-29T04:21:25.122Z,91220.94
2023-01-29T04:23:51.913Z,91212.28
2023-01-29T04:26:29.400Z,91217.47
2023-01-29T04:29:33.402Z,91225.81
2023-01-29T04:32:18.971Z,91232.16
2023-01-29T04:35:17.679Z,91232.75
2023-01-29T04:38:01.571Z,91230.00
2023-01-29T04:41:19.390Z,91243.28
2023-01-29T04:44:06.414Z,91243.28
2023-01-29T04:46:54.851Z,91243.66
2023-01-29T04:49:30.537Z,91248.34
2023-01-29T04:52:09.042Z,91253.25
2023-01-29T04:54:48.580Z,91247.84
2023-01-29T04:57:25.485Z,91251.03
2023-01-29T05:00:23.230Z,91254.22
2023-01-29T05:02:51.103Z,91255.16
2023-01-29T05:05:20.305Z,91258.06
2023-01-29T05:07:48.304Z,91254.56
2023-01-29T05:10:20.143Z,91249.41
2023-01-29T05:12:52.999Z,91265.78
2023-01-29T05:15:26.615Z,91259.22
2023-01-29T05:17:54.657Z,91259.53
2023-01-29T05:20:21.646Z,91267.13
2023-01-29T05:22:49.337Z,91260.75
2023-01-29T05:25:26.123Z,91259.09
2023-01-29T05:28:16.395Z,91267.00
2023-01-29T05:30:49.429Z,91268.53
2023-01-29T05:33:27.934Z,91275.22
2023-01-29T05:35:55.979Z,91270.91
2023-01-29T05:38:23.846Z,91265.03
2023-01-29T05:40:50.953Z,91273.41
2023-01-29T05:43:25.459Z,91273.94
2023-01-29T05:45:59.973Z,91282.28
2023-01-29T05:48:28.980Z,91286.78
2023-01-29T05:51:04.701Z,91278.47
2023-01-29T05:53:32.563Z,91258.69
2023-01-29T05:56:02.434Z,91285.59
2023-01-29T05:58:31.925Z,91285.75
2023-01-29T06:00:58.814Z,91288.88
2023-01-29T06:03:25.496Z,91288.63
2023-01-29T06:05:52.257Z,91299.78
2023-01-29T06:08:18.951Z,91298.75
2023-01-29T06:10:45.673Z,91292.22
2023-01-29T06:13:12.386Z,91296.69
2023-01-29T06:15:40.615Z,91298.47
2023-01-29T06:18:07.334Z,91301.38
2023-01-29T06:20:34.039Z,91298.25
2023-01-29T06:23:00.904Z,91308.53
2023-01-29T06:25:27.615Z,91308.72
2023-01-29T06:27:54.287Z,91286.22
2023-01-29T06:30:21.123Z,91315.25
2023-01-29T06:32:48.004Z,91312.22
2023-01-29T06:35:14.704Z,91309.03
2023-01-29T06:37:41.430Z,91288.34
2023-01-29T06:40:08.943Z,91313.94
2023-01-29T06:42:35.894Z,91320.50
2023-01-29T06:45:02.594Z,91324.66
2023-01-29T06:47:30.290Z,91324.38
2023-01-29T06:49:56.964Z,91315.78
2023-01-29T06:52:25.532Z,91328.75
2023-01-29T06:54:52.218Z,91326.13
2023-01-29T06:57:18.975Z,91328.09
2023-01-29T06:59:45.644Z,91337.06
2023-01-29T07:02:16.029Z,91334.66
2023-01-29T07:04:42.972Z,91342.81
2023-01-29T07:07:15.804Z,91342.44
2023-01-29T07:09:43.117Z,91318.41
2023-01-29T07:12:10.610Z,91349.16
2023-01-29T07:14:37.531Z,91349.03
2023-01-29T07:17:04.510Z,91343.13
2023-01-29T07:19:31.405Z,91340.34
2023-01-29T07:21:58.325Z,91341.56
2023-01-29T07:24:25.093Z,91349.41
2023-01-29T07:26:51.868Z,91335.78
2023-01-29T07:29:20.865Z,91339.25
2023-01-29T07:31:47.900Z,91316.75
2023-01-29T07:34:14.844Z,91341.53
2023-01-29T07:36:41.727Z,91347.09
2023-01-29T07:39:08.444Z,91347.00
2023-01-29T07:41:35.300Z,91336.34
2023-01-29T07:44:02.042Z,91343.34
2023-01-29T07:46:28.741Z,91347.34
2023-01-29T07:48:55.520Z,91347.09
2023-01-29T07:51:22.255Z,91346.00
2023-01-29T07:53:50.096Z,91343.41
2023-01-29T07:56:16.800Z,91349.09
2023-01-29T07:58:43.566Z,91354.44
2023-01-29T08:01:10.359Z,91358.69
2023-01-29T08:03:37.695Z,91360.53
2023-01-29T08:06:04.866Z,91357.41
2023-01-29T08:08:31.628Z,91370.25
2023-01-29T08:11:01.364Z,91361.06
2023-01-29T08:13:28.408Z,91352.75
2023-01-29T08:16:00.122Z,91366.63
2023-01-29T08:18:27.024Z,91369.03
2023-01-29T08:20:54.508Z,91372.88
2023-01-29T08:23:21.306Z,91373.13
2023-01-29T08:25:48.247Z,91344.44
2023-01-29T08:28:16.436Z,91374.53
2023-01-29T08:30:44.786Z,91371.19
2023-01-29T08:33:13.716Z,91380.19
2023-01-29T08:35:41.328Z,91380.56
2023-01-29T08:38:09.737Z,91379.84
2023-01-29T08:40:36.611Z,91369.84
2023-01-29T08:43:07.999Z,91376.44
2023-01-29T08:45:38.353Z,91374.56
2023-01-29T08:48:05.780Z,91384.47
2023-01-29T08:50:35.076Z,91385.03
2023-01-29T08:53:04.699Z,91379.13
2023-01-29T08:55:31.802Z,91380.03
2023-01-29T08:57:58.610Z,91379.59
2023-01-29T09:00:25.503Z,91377.31
2023-01-29T09:02:52.730Z,91388.69
2023-01-29T09:05:19.819Z,91381.16
2023-01-29T09:07:46.862Z,91381.97
2023-01-29T09:10:15.512Z,91383.22
2023-01-29T09:12:42.986Z,91376.75
2023-01-29T09:15:10.271Z,91367.72
2023-01-29T09:17:38.603Z,91378.91
2023-01-29T09:20:07.867Z,91353.75
2023-01-29T09:22:37.143Z,91361.13
2023-01-29T09:25:04.463Z,91382.38
2023-01-29T09:27:31.249Z,91364.34
2023-01-29T09:29:58.119Z,91369.19
2023-01-29T09:32:52.110Z,91363.09
2023-01-29T09:35:11.697Z,91360.94
2023-01-29T09:37:38.488Z,91364.88
2023-01-29T09:40:05.963Z,91359.81
2023-01-29T09:42:50.365Z,91360.59
2023-01-29T09:45:25.486Z,91368.72
2023-01-29T09:47:53.716Z,91365.31
2023-01-29T09:50:28.351Z,91356.81
2023-01-29T09:53:19.880Z,91356.72
2023-01-29T09:55:55.725Z,91357.09
2023-01-29T09:58:29.267Z,91360.28
2023-01-29T10:01:26.460Z,91357.34
2023-01-29T10:04:14.963Z,91354.72
2023-01-29T10:07:01.735Z,91348.81
2023-01-29T10:09:43.814Z,91354.13
2023-01-29T10:12:44.053Z,91345.84
2023-01-29T10:15:39.005Z,91350.09
2023-01-29T10:18:43.152Z,91350.06
2023-01-29T10:21:24.350Z,91336.13
2023-01-29T10:24:12.397Z,91339.91
2023-01-29T10:26:40.743Z,91340.28
2023-01-29T10:29:08.724Z,91338.38
2023-01-29T10:31:40.597Z,91339.19
2023-01-29T10:34:25.100Z,91334.91
2023-01-29T10:36:51.852Z,91339.00
2023-01-29T10:39:20.990Z,91332.94
2023-01-29T10:41:54.098Z,91334.09
2023-01-29T10:44:49.683Z,91333.09
2023-01-29T10:48:06.484Z,91323.38
2023-01-29T10:50:42.268Z,91326.28
2023-01-29T10:53:24.422Z,91315.53
2023-01-29T10:55:53.689Z,91319.22
2023-01-29T10:58:30.440Z,91321.66
2023-01-29T11:00:57.989Z,91318.34
2023-01-29T11:03:33.606Z,91317.94
2023-01-29T11:06:13.038Z,91313.03
2023-01-29T11:08:48.862Z,91319.81
2023-01-29T11:11:18.170Z,91299.53
2023-01-29T11:13:55.411Z,91309.44
2023-01-29T11:16:22.191Z,91314.28
2023-01-29T11:18:55.170Z,91317.81
2023-01-29T11:21:24.579Z,91283.03
2023-01-29T11:24:06.429Z,91308.53
2023-01-29T11:26:38.259Z,91301.88
2023-01-29T11:29:05.122Z,91297.69
2023-01-29T11:31:39.864Z,91299.88
2023-01-29T11:34:19.521Z,91292.63
2023-01-29T11:36:47.041Z,91298.03
2023-01-29T11:39:21.496Z,91295.94
2023-01-29T11:41:49.874Z,91291.41
2023-01-29T11:44:53.779Z,91291.72
2023-01-29T11:47:27.941Z,91282.91
2023-01-29T11:50:01.220Z,91283.59
2023-01-29T11:52:36.534Z,91264.13
2023-01-29T11:55:29.697Z,91274.69
2023-01-29T11:58:15.166Z,91277.63
2023-01-29T12:00:46.730Z,91282.88
2023-01-29T12:03:38.163Z,91283.56
2023-01-29T12:06:12.814Z,91280.56
2023-01-29T12:08:40.276Z,91274.19
2023-01-29T12:11:10.450Z,91276.53
2023-01-29T12:13:37.358Z,91273.44
2023-01-29T12:16:29.298Z,91277.75
2023-01-29T12:19:22.381Z,91281.44
2023-01-29T12:21:52.651Z,91283.59
2023-01-29T12:24:32.266Z,91264.00
2023-01-29T12:27:20.834Z,91278.28
2023-01-29T12:29:55.944Z,91279.28
2023-01-29T12:32:28.972Z,91279.50
2023-01-29T12:35:10.662Z,91288.47
2023-01-29T12:38:01.056Z,91285.75
2023-01-29T12:40:33.808Z,91289.03
2023-01-29T12:43:07.308Z,91280.03
2023-01-29T12:45:37.034Z,91287.47
2023-01-29T12:48:10.700Z,91283.38
2023-01-29T12:50:38.776Z,91278.66
2023-01-29T12:53:14.524Z,91282.81
2023-01-29T12:55:48.821Z,91273.59
2023-01-29T12:58:25.474Z,91273.56
2023-01-29T13:00:55.327Z,91267.91
2023-01-29T13:03:31.609Z,91272.56
2023-01-29T13:06:12.121Z,91271.38
2023-01-29T13:08:45.755Z,91271.91
2023-01-29T13:11:39.774Z,91270.81
2023-01-29T13:14:44.811Z,91270.97
2023-01-29T13:17:38.198Z,91274.16
2023-01-29T13:20:32.765Z,91271.91
2023-01-29T13:23:12.995Z,91268.59
2023-01-29T13:25:39.881Z,91266.19
2023-01-29T13:28:21.137Z,91269.69
2023-01-29T13:31:07.852Z,91271.06
2023-01-29T13:33:34.736Z,91271.41
2023-01-29T13:36:01.513Z,91264.31
2023-01-29T13:38:33.332Z,91261.06
2023-01-29T13:41:06.669Z,91259.47
2023-01-29T13:43:40.808Z,91260.81
2023-01-29T13:46:10.765Z,91272.31
2023-01-29T13:48:42.982Z,91271.91
2023-01-29T13:51:22.100Z,91268.22
2023-01-29T13:53:54.157Z,91273.00
2023-01-29T13:56:33.188Z,91276.53
2023-01-29T13:59:05.649Z,91283.72
2023-01-29T14:01:47.733Z,91283.06
2023-01-29T14:04:25.577Z,91278.06
2023-01-29T14:07:07.034Z,91284.44
2023-01-29T14:09:33.817Z,91280.47
2023-01-29T14:12:00.668Z,91278.53
2023-01-29T14:14:59.699Z,91282.53
2023-01-29T14:17:27.457Z,91270.03
2023-01-29T14:20:03.325Z,91297.31
2023-01-29T14:22:33.810Z,91295.13
2023-01-29T14:25:05.072Z,91306.81
2023-01-29T14:27:32.996Z,91309.34
2023-01-29T14:30:02.695Z,91317.47
2023-01-29T14:32:29.958Z,91321.25
2023-01-29T14:35:25.175Z,91321.50
2023-01-29T14:37:56.390Z,91316.69
2023-01-29T14:40:26.101Z,91316.00
2023-01-29T14:42:58.691Z,91310.63
2023-01-29T14:45:42.641Z,91310.38
2023-01-29T14:48:12.498Z,91304.06
2023-01-29T14:50:42.969Z,91307.41
2023-01-29T14:53:37.719Z,91314.03
2023-01-29T14:56:10.870Z,91313.41
2023-01-29T14:58:39.624Z,91312.06
2023-01-29T15:01:25.355Z,91314.97
2023-01-29T15:04:12.160Z,91326.28
2023-01-29T15:07:10.490Z,91339.13
2023-01-29T15:10:21.546Z,91335.81
2023-01-29T15:13:01.106Z,91334.19
2023-01-29T15:15:50.950Z,91341.97
2023-01-29T15:18:28.829Z,91347.00
2023-01-29T15:21:04.925Z,91338.88
2023-01-29T15:23:34.552Z,91353.94
2023-01-29T15:26:11.696Z,91356.38
2023-01-29T15:28:40.078Z,91351.47
2023-01-29T15:31:15.245Z,91359.28
2023-01-29T15:33:45.661Z,91360.97
2023-01-29T15:36:25.471Z,91362.16
2023-01-29T15:39:22.623Z,91363.06
2023-01-29T15:41:52.025Z,91363.56
2023-01-29T15:44:23.106Z,91375.44
2023-01-29T15:46:54.829Z,91371.03
2023-01-29T15:49:34.058Z,91364.69
2023-01-29T15:52:08.022Z,91373.78
2023-01-29T15:54:35.942Z,91373.19
2023-01-29T15:57:03.629Z,91379.28
2023-01-29T15:59:34.772Z,91369.25
2023-01-29T16:02:35.689Z,91371.81
2023-01-29T16:05:04.062Z,91375.94
2023-01-29T16:07:32.125Z,91379.41
2023-01-29T16:10:00.404Z,91379.56
2023-01-29T16:12:28.107Z,91386.72
2023-01-29T16:14:56.022Z,91384.31
2023-01-29T16:17:35.756Z,91388.09
2023-01-29T16:20:06.123Z,91380.03
2023-01-29T16:22:37.936Z,91366.19
2023-01-29T16:25:05.538Z,91389.00
2023-01-29T16:27:33.626Z,91387.75
2023-01-29T16:30:02.309Z,91388.25
2023-01-29T16:32:30.711Z,91394.63
2023-01-29T16:35:00.348Z,91399.81
2023-01-29T16:37:33.575Z,91396.91
2023-01-29T16:40:00.527Z,91399.03
2023-01-29T16:42:31.561Z,91398.88
2023-01-29T16:45:02.598Z,91404.50
2023-01-29T16:47:34.063Z,91400.25
2023-01-29T16:50:22.534Z,91399.47
2023-01-29T16:53:22.192Z,91402.38
2023-01-29T16:55:51.429Z,91377.75
2023-01-29T16:58:30.815Z,91405.13
2023-01-29T17:01:10.810Z,91399.91
2023-01-29T17:03:39.450Z,91403.88
2023-01-29T17:06:11.710Z,91403.13
2023-01-29T17:08:41.271Z,91404.19
2023-01-29T17:11:09.626Z,91404.50
2023-01-29T17:13:45.468Z,91407.22
2023-01-29T17:16:32.587Z,91400.19
2023-01-29T17:19:00.586Z,91409.41
2023-01-29T17:21:29.053Z,91404.09
2023-01-29T17:23:55.824Z,91406.28
2023-01-29T17:26:25.005Z,91399.75
2023-01-29T17:28:53.826Z,91390.75
2023-01-29T17:31:20.643Z,91393.13
2023-01-29T17:33:47.867Z,91398.66
2023-01-29T17:36:16.816Z,91397.34
2023-01-29T17:38:45.017Z,91399.06
2023-01-29T17:41:32.934Z,91401.78
2023-01-29T17:43:59.629Z,91403.34
2023-01-29T17:46:27.591Z,91399.81
2023-01-29T17:48:54.265Z,91386.31
2023-01-29T17:51:21.887Z,91412.38
2023-01-29T17:53:50.058Z,91400.06
2023-01-29T17:56:30.724Z,91406.50
2023-01-29T17:58:57.405Z,91397.09
2023-01-29T18:01:24.181Z,91398.28
2023-01-29T18:03:50.997Z,91400.66
2023-01-29T18:06:27.921Z,91408.44
2023-01-29T18:08:54.675Z,91408.94
2023-01-29T18:11:21.430Z,91402.84
2023-01-29T18:13:48.395Z,91403.97
2023-01-29T18:16:15.633Z,91406.69
2023-01-29T18:18:42.340Z,91408.06
2023-01-29T18:21:09.029Z,91404.75
2023-01-29T18:23:36.257Z,91400.09
2023-01-29T18:26:02.992Z,91402.84
2023-01-29T18:28:29.889Z,91399.84
2023-01-29T18:30:56.952Z,91400.06
2023-01-29T18:33:24.322Z,91406.50
2023-01-29T18:35:55.051Z,91406.66
2023-01-29T18:38:22.166Z,91411.31
2023-01-29T18:40:48.992Z,91403.94
2023-01-29T18:43:21.412Z,91412.03
2023-01-29T18:45:48.894Z,91417.50
2023-01-29T18:48:15.523Z,91416.53
2023-01-29T18:50:42.261Z,91413.81
2023-01-29T18:53:09.028Z,91417.19
2023-01-29T18:55:36.032Z,91410.50
2023-01-29T18:58:28.772Z,91407.31
2023-01-29T19:00:49.528Z,91416.31
2023-01-29T19:03:16.373Z,91415.81
2023-01-29T19:05:43.327Z,91392.72
2023-01-29T19:08:10.273Z,91420.88
2023-01-29T19:10:37.069Z,91414.19
2023-01-29T19:13:05.802Z,91423.63
2023-01-29T19:15:33.744Z,91416.56
2023-01-29T19:18:00.876Z,91409.72
2023-01-29T19:20:28.019Z,91413.88
2023-01-29T19:22:54.709Z,91408.78
2023-01-29T19:25:26.679Z,91411.75
2023-01-29T19:27:53.378Z,91410.75
2023-01-29T19:30:20.165Z,91415.41
2023-01-29T19:32:46.983Z,91413.88
2023-01-29T19:35:13.835Z,91420.41
2023-01-29T19:37:40.474Z,91422.47
2023-01-29T19:40:08.529Z,91427.78
2023-01-29T19:42:37.495Z,91425.09
2023-01-29T19:45:05.633Z,91427.97
2023-01-29T19:47:32.891Z,91419.91
2023-01-29T19:49:59.641Z,91426.63
2023-01-29T19:52:50.189Z,91419.59
2023-01-29T19:55:19.068Z,91427.16
2023-01-29T19:57:46.014Z,91432.53
2023-01-29T20:00:17.711Z,91422.81
2023-01-29T20:02:44.509Z,91422.88
2023-01-29T20:05:13.016Z,91426.22
2023-01-29T20:07:42.614Z,91422.69
2023-01-29T20:10:15.264Z,91417.50
2023-01-29T20:12:44.776Z,91419.44
2023-01-29T20:15:12.558Z,91413.31
2023-01-29T20:17:39.349Z,91411.22
2023-01-29T20:20:06.986Z,91413.44
2023-01-29T20:22:33.700Z,91408.28
2023-01-29T20:25:00.396Z,91416.31
2023-01-29T20:27:27.069Z,91414.00
2023-01-29T20:29:53.732Z,91413.59
2023-01-29T20:32:20.423Z,91410.44
2023-01-29T20:34:51.894Z,91402.47
2023-01-29T20:37:19.417Z,91415.75
2023-01-29T20:39:46.405Z,91384.09
2023-01-29T20:42:13.747Z,91423.09
2023-01-29T20:44:40.515Z,91423.47
2023-01-29T20:47:07.344Z,91422.34
2023-01-29T20:49:34.033Z,91425.59
2023-01-29T20:52:01.798Z,91428.13
2023-01-29T20:54:30.194Z,91422.56
2023-01-29T20:56:57.070Z,91433.69
2023-01-29T20:59:23.808Z,91431.56
2023-01-29T21:01:50.673Z,91422.28
2023-01-29T21:04:18.574Z,91425.78
2023-01-29T21:06:45.218Z,91432.41
2023-01-29T21:09:12.111Z,91423.06
2023-01-29T21:11:38.830Z,91428.59
2023-01-29T21:14:05.538Z,91426.00
2023-01-29T21:16:32.377Z,91425.16
2023-01-29T21:18:59.574Z,91427.78
2023-01-29T21:21:27.148Z,91428.03
2023-01-29T21:23:54.327Z,91415.75
2023-01-29T21:26:23.308Z,91414.50
2023-01-29T21:28:50.404Z,91408.19
2023-01-29T21:31:17.898Z,91400.22
2023-01-29T21:33:44.776Z,91418.38
2023-01-29T21:36:12.296Z,91414.94
2023-01-29T21:38:39.882Z,91402.69
2023-01-29T21:41:09.840Z,91407.75
2023-01-29T21:43:37.153Z,91407.84
2023-01-29T21:46:12.179Z,91392.41
2023-01-29T21:48:40.309Z,91412.78
2023-01-29T21:51:07.557Z,91403.41
2023-01-29T21:53:34.798Z,91415.47
2023-01-29T21:56:03.720Z,91427.06
2023-01-29T21:58:32.529Z,91419.44
2023-01-29T22:01:18.560Z,91424.34
2023-01-29T22:03:47.353Z,91425.47
2023-01-29T22:06:14.981Z,91426.28
2023-01-29T22:08:41.593Z,91426.44
2023-01-29T22:11:09.012Z,91430.00
2023-01-29T22:13:35.752Z,91423.47
2023-01-29T22:16:02.389Z,91409.81
2023-01-29T22:18:30.181Z,91421.31
2023-01-29T22:20:57.582Z,91421.19
2023-01-29T22:23:24.703Z,91414.06
2023-01-29T22:25:51.451Z,91416.25
2023-01-29T22:28:18.838Z,91421.06
2023-01-29T22:30:45.620Z,91416.78
2023-01-29T22:33:12.644Z,91410.78
2023-01-29T22:35:39.314Z,91405.16
2023-01-29T22:38:06.583Z,91411.59
2023-01-29T22:40:33.393Z,91410.19
2023-01-29T22:43:00.114Z,91403.19
2023-01-29T22:45:28.973Z,91402.00
2023-01-29T22:47:56.566Z,91403.06
2023-01-29T22:50:23.201Z,91398.75
2023-01-29T22:52:54.091Z,91402.63
2023-01-29T22:55:21.596Z,91393.13
2023-01-29T22:57:49.780Z,91397.75
2023-01-29T23:00:17.212Z,91396.25
2023-01-29T23:02:46.142Z,91387.25
2023-01-29T23:05:12.909Z,91392.94
2023-01-29T23:07:39.650Z,91385.72
2023-01-29T23:10:07.332Z,91390.53
2023-01-29T23:12:34.380Z,91398.63
2023-01-29T23:15:01.086Z,91389.41
2023-01-29T23:17:29.773Z,91393.09
2023-01-29T23:19:56.445Z,91383.56
2023-01-29T23:22:23.532Z,91383.56
2023-01-29T23:24:50.264Z,91382.84
2023-01-29T23:27:16.947Z,91387.56
2023-01-29T23:29:48.136Z,91387.06
2023-01-29T23:32:18.409Z,91393.44
2023-01-29T23:34:46.412Z,91382.06
2023-01-29T23:37:13.703Z,91390.88
2023-01-29T23:39:40.321Z,91389.91
2023-01-29T23:42:07.042Z,91388.56
2023-01-29T23:44:35.584Z,91378.91
2023-01-29T23:47:02.237Z,91377.94
2023-01-29T23:49:29.478Z,91372.19
2023-01-29T23:51:56.172Z,91374.91
2023-01-29T23:54:23.371Z,91377.06
2023-01-29T23:56:52.653Z,91371.84
2023-01-29T23:59:19.529Z,91376.00
